createdAt,value
2018-12-15T00:00:46.059Z,5.6
2018-12-15T00:03:46.228Z,5.2
2018-12-15T00:06:46.152Z,6.4
2018-12-15T00:09:45.996Z,5.5
2018-12-15T00:12:46.449Z,6
2018-12-15T00:15:45.852Z,6
2018-12-15T00:18:46.040Z,5.9
2018-12-15T00:21:45.963Z,5.4
2018-12-15T00:24:46.144Z,5.4
2018-12-15T00:27:46.014Z,5.2
2018-12-15T00:30:46.443Z,5.4
2018-12-15T00:33:46.287Z,5.2
2018-12-15T00:36:46.444Z,5.8
2018-12-15T00:39:46.359Z,6.2
2018-12-15T00:42:45.918Z,5.8
2018-12-15T00:45:46.450Z,5.8
2018-12-15T00:48:46.167Z,5.6
2018-12-15T00:51:46.346Z,5.3
2018-12-15T00:54:46.426Z,5.1
2018-12-15T00:57:46.456Z,5.2
2018-12-15T01:00:46.227Z,5.2
2018-12-15T01:03:45.994Z,5.3
2018-12-15T01:06:46.309Z,5.1
2018-12-15T01:09:46.269Z,7.4
2018-12-15T01:12:45.838Z,5.5
2018-12-15T01:15:45.975Z,5.1
2018-12-15T01:18:46.409Z,5.5
2018-12-15T01:21:46.042Z,5.3
2018-12-15T01:24:46.162Z,5
2018-12-15T01:27:46.476Z,6.3
2018-12-15T01:30:46.118Z,5.4
2018-12-15T01:33:46.401Z,4.8
2018-12-15T01:36:45.920Z,5.6
2018-12-15T01:39:46.360Z,5.7
2018-12-15T01:42:45.948Z,5.2
2018-12-15T01:45:45.940Z,5
2018-12-15T01:48:45.882Z,5.1
2018-12-15T01:51:46.043Z,4.8
2018-12-15T01:54:45.937Z,4.9
2018-12-15T01:57:46.085Z,5.7
2018-12-15T02:00:45.815Z,5.3
2018-12-15T02:03:46.210Z,4.8
2018-12-15T02:06:46.086Z,4.9
2018-12-15T02:09:46.131Z,5.2
2018-12-15T02:12:45.924Z,5.1
2018-12-15T02:15:46.309Z,5
2018-12-15T02:18:46.044Z,5.7
2018-12-15T02:21:45.889Z,5.4
2018-12-15T02:24:46.595Z,4.9
2018-12-15T02:27:46.004Z,5.2
2018-12-15T02:30:47.986Z,4.6
2018-12-15T02:33:45.973Z,5.1
2018-12-15T02:36:46.557Z,5
2018-12-15T02:39:46.733Z,5.2
2018-12-15T02:42:46.369Z,5.2
2018-12-15T02:45:46.058Z,5
2018-12-15T02:48:46.299Z,4.7
2018-12-15T02:51:46.256Z,4.8
2018-12-15T02:54:45.928Z,4.8
2018-12-15T02:57:46.160Z,5.1
2018-12-15T03:00:46.501Z,5.2
2018-12-15T03:03:45.976Z,5
2018-12-15T03:06:45.978Z,5.2
2018-12-15T03:09:45.920Z,4.9
2018-12-15T03:12:46.065Z,4.8
2018-12-15T03:15:46.314Z,4.8
2018-12-15T03:18:45.892Z,5
2018-12-15T03:21:46.366Z,4.9
2018-12-15T03:24:46.228Z,4.9
2018-12-15T03:27:46.186Z,4.7
2018-12-15T03:30:46.471Z,5.1
2018-12-15T03:33:45.868Z,4.6
2018-12-15T03:36:46.204Z,4.9
2018-12-15T03:39:45.987Z,4.7
2018-12-15T03:42:45.849Z,5
2018-12-15T03:45:46.061Z,4.8
2018-12-15T03:48:45.965Z,4.7
2018-12-15T03:51:46.574Z,5
2018-12-15T03:54:46.094Z,4.8
2018-12-15T03:57:46.630Z,4.7
2018-12-15T04:00:45.934Z,5
2018-12-15T04:03:46.283Z,4.5
2018-12-15T04:06:46.006Z,4.7
2018-12-15T04:09:46.058Z,5
2018-12-15T04:12:46.127Z,4.6
2018-12-15T04:15:46.253Z,4.8
2018-12-15T04:18:46.055Z,4.7
2018-12-15T04:21:46.121Z,5
2018-12-15T04:24:46.201Z,4.8
2018-12-15T04:27:45.828Z,4.5
2018-12-15T04:30:46.239Z,4.9
2018-12-15T04:33:45.937Z,4.7
2018-12-15T04:36:45.876Z,4.9
2018-12-15T04:39:46.511Z,4.5
2018-12-15T04:42:46.514Z,4.5
2018-12-15T04:45:46.761Z,4.4
2018-12-15T04:48:46.123Z,4.6
2018-12-15T04:51:45.901Z,4.2
2018-12-15T04:54:45.860Z,4.3
2018-12-15T04:57:46.170Z,4.3
2018-12-15T05:00:46.296Z,4.5
2018-12-15T05:03:45.872Z,4.6
2018-12-15T05:06:46.083Z,4.4
2018-12-15T05:09:45.939Z,4.5
2018-12-15T05:12:45.823Z,4.2
2018-12-15T05:15:46.004Z,4.6
2018-12-15T05:18:46.148Z,4
2018-12-15T05:21:45.842Z,4.3
2018-12-15T05:24:45.867Z,4.2
2018-12-15T05:27:46.227Z,4.1
2018-12-15T05:30:45.803Z,4.7
2018-12-15T05:33:46.222Z,4.1
2018-12-15T05:36:46.119Z,4.1
2018-12-15T05:39:46.436Z,4.2
2018-12-15T05:42:46.542Z,4.2
2018-12-15T05:45:45.775Z,4
2018-12-15T05:48:46.317Z,4.6
2018-12-15T05:51:45.907Z,3.9
2018-12-15T05:54:46.479Z,4
2018-12-15T05:57:45.754Z,4
2018-12-15T06:00:46.723Z,4.1
2018-12-15T06:03:46.114Z,4.2
2018-12-15T06:06:46.217Z,4.1
2018-12-15T06:09:46.116Z,4.3
2018-12-15T06:12:45.780Z,4.2
2018-12-15T06:15:46.610Z,4.1
2018-12-15T06:18:46.507Z,4.1
2018-12-15T06:21:46.326Z,3.8
2018-12-15T06:24:45.854Z,3.6
2018-12-15T06:27:45.696Z,4.1
2018-12-15T06:30:46.200Z,4.2
2018-12-15T06:33:46.727Z,4.1
2018-12-15T06:36:46.002Z,4.2
2018-12-15T06:39:46.962Z,4.2
2018-12-15T06:42:45.875Z,3.9
2018-12-15T06:45:46.178Z,4.1
2018-12-15T06:48:46.338Z,4.2
2018-12-15T06:51:46.013Z,4.1
2018-12-15T06:54:45.770Z,4.1
2018-12-15T06:57:46.057Z,4
2018-12-15T07:00:45.981Z,4.2
2018-12-15T07:03:45.814Z,4
2018-12-15T07:06:46.098Z,4.1
2018-12-15T07:09:46.141Z,3.8
2018-12-15T07:12:46.175Z,4
2018-12-15T07:15:45.879Z,4
2018-12-15T07:18:46.318Z,4
2018-12-15T07:21:45.913Z,4
2018-12-15T07:24:45.942Z,3.9
2018-12-15T07:27:45.808Z,3.8
2018-12-15T07:30:46.230Z,4.5
2018-12-15T07:33:45.944Z,4.1
2018-12-15T07:36:46.197Z,3.6
2018-12-15T07:39:46.173Z,3.8
2018-12-15T07:42:45.768Z,4.2
2018-12-15T07:45:45.721Z,4.2
2018-12-15T07:48:51.914Z,4.1
2018-12-15T07:51:45.977Z,4
2018-12-15T07:54:45.948Z,4
2018-12-15T07:57:46.610Z,4
2018-12-15T08:00:46.325Z,4.1
2018-12-15T08:03:46.116Z,3.9
2018-12-15T08:06:45.918Z,4.1
2018-12-15T08:09:45.940Z,4
2018-12-15T08:12:46.086Z,3.9
2018-12-15T08:15:46.148Z,3.9
2018-12-15T08:18:45.995Z,4.8
2018-12-15T08:21:45.802Z,4.2
2018-12-15T08:24:46.096Z,4
2018-12-15T08:27:46.216Z,4.1
2018-12-15T08:30:46.147Z,4.2
2018-12-15T08:33:46.213Z,3.8
2018-12-15T08:36:45.757Z,4.2
2018-12-15T08:39:45.853Z,3.9
2018-12-15T08:42:45.943Z,3.9
2018-12-15T08:45:45.907Z,4
2018-12-15T08:48:45.816Z,3.8
2018-12-15T08:51:45.977Z,3.6
2018-12-15T08:54:46.246Z,4
2018-12-15T08:57:45.736Z,3.7
2018-12-15T09:00:46.257Z,4.1
2018-12-15T09:03:46.162Z,4
2018-12-15T09:06:46.166Z,3.9
2018-12-15T09:09:46.742Z,4.4
2018-12-15T09:12:46.207Z,3.8
2018-12-15T09:15:45.814Z,4
2018-12-15T09:18:46.259Z,3.8
2018-12-15T09:21:45.836Z,5.4
2018-12-15T09:24:45.919Z,4.1
2018-12-15T09:27:46.243Z,4.3
2018-12-15T09:30:45.702Z,4.1
2018-12-15T09:33:46.084Z,4
2018-12-15T09:36:45.848Z,4.1
2018-12-15T09:39:46.077Z,4
2018-12-15T09:42:45.888Z,4.1
2018-12-15T09:45:45.809Z,4
2018-12-15T09:48:45.917Z,4.1
2018-12-15T09:51:45.971Z,3.9
2018-12-15T09:54:46.436Z,4.1
2018-12-15T09:57:45.913Z,4.6
2018-12-15T10:00:45.731Z,6.8
2018-12-15T10:03:45.733Z,4.5
2018-12-15T10:06:45.830Z,7.8
2018-12-15T10:09:45.700Z,13.2
2018-12-15T10:12:45.976Z,6.5
2018-12-15T10:15:45.729Z,5.6
2018-12-15T10:18:45.914Z,5
2018-12-15T10:21:46.314Z,9.4
2018-12-15T10:24:46.153Z,7.5
2018-12-15T10:27:46.304Z,5.4
2018-12-15T10:30:45.777Z,7.1
2018-12-15T10:33:46.183Z,5.6
2018-12-15T10:36:46.181Z,5.7
2018-12-15T10:39:45.775Z,4.5
2018-12-15T10:42:45.897Z,6.1
2018-12-15T10:45:45.831Z,4.3
2018-12-15T10:48:45.830Z,7.5
2018-12-15T10:51:45.773Z,5.1
2018-12-15T10:54:45.657Z,5.8
2018-12-15T10:57:46.748Z,4.9
2018-12-15T11:00:45.940Z,5.3
2018-12-15T11:03:46.624Z,5.2
2018-12-15T11:06:46.226Z,4.8
2018-12-15T11:09:45.772Z,5.2
2018-12-15T11:12:45.779Z,6.3
2018-12-15T11:15:46.016Z,7.9
2018-12-15T11:18:45.872Z,7.5
2018-12-15T11:21:45.920Z,6.2
2018-12-15T11:24:46.302Z,6.5
2018-12-15T11:27:45.911Z,10.2
2018-12-15T11:30:46.250Z,7.2
2018-12-15T11:33:45.848Z,7.6
2018-12-15T11:36:46.407Z,6.6
2018-12-15T11:39:45.967Z,5.4
2018-12-15T11:42:45.923Z,4.8
2018-12-15T11:45:45.896Z,4.7
2018-12-15T11:48:45.817Z,7.9
2018-12-15T11:51:45.907Z,5.1
2018-12-15T11:54:46.192Z,5.8
2018-12-15T11:57:46.078Z,5.2
2018-12-15T12:00:45.856Z,6.9
2018-12-15T12:03:45.824Z,4.8
2018-12-15T12:06:46.083Z,4.6
2018-12-15T12:09:45.891Z,5.1
2018-12-15T12:12:46.281Z,4.8
2018-12-15T12:15:45.935Z,5.9
2018-12-15T12:18:46.620Z,12.1
2018-12-15T12:21:46.046Z,6.8
2018-12-15T12:24:45.621Z,6.3
2018-12-15T12:27:46.281Z,7.6
2018-12-15T12:30:45.659Z,5.6
2018-12-15T12:33:45.806Z,6
2018-12-15T12:36:46.094Z,4.3
2018-12-15T12:39:45.586Z,4.3
2018-12-15T12:42:46.079Z,4.9
2018-12-15T12:45:45.853Z,4.6
2018-12-15T12:48:46.552Z,4.5
2018-12-15T12:51:45.828Z,4.3
2018-12-15T12:54:46.086Z,4.1
2018-12-15T12:57:45.874Z,4.8
2018-12-15T13:00:45.843Z,8.4
2018-12-15T13:03:45.828Z,5.7
2018-12-15T13:06:45.663Z,6.8
2018-12-15T13:09:45.883Z,4.8
2018-12-15T13:12:46.137Z,5.4
2018-12-15T13:15:45.829Z,5.7
2018-12-15T13:18:45.724Z,4.4
2018-12-15T13:21:45.893Z,5.4
2018-12-15T13:24:45.995Z,4.6
2018-12-15T13:27:45.804Z,5.5
2018-12-15T13:30:45.995Z,8.1
2018-12-15T13:33:45.749Z,4.6
2018-12-15T13:36:45.891Z,7.5
2018-12-15T13:39:46.114Z,7.5
2018-12-15T13:42:46.732Z,4.6
2018-12-15T13:45:45.789Z,6.4
2018-12-15T13:48:45.894Z,8.1
2018-12-15T13:51:46.477Z,9.3
2018-12-15T13:54:45.735Z,9.6
2018-12-15T13:57:45.810Z,5.4
2018-12-15T14:00:46.061Z,8.9
2018-12-15T14:03:45.992Z,7
2018-12-15T14:06:45.692Z,7.2
2018-12-15T14:09:46.027Z,6.8
2018-12-15T14:12:46.764Z,7.6
2018-12-15T14:15:45.960Z,7.7
2018-12-15T14:18:45.824Z,6.9
2018-12-15T14:21:45.762Z,7.6
2018-12-15T14:24:46.012Z,8.1
2018-12-15T14:27:46.098Z,8.4
2018-12-15T14:30:46.704Z,8.2
2018-12-15T14:33:46.185Z,6.5
2018-12-15T14:36:46.156Z,6.8
2018-12-15T14:39:45.976Z,5.6
2018-12-15T14:42:45.903Z,5.8
2018-12-15T14:45:46.063Z,6.4
2018-12-15T14:48:45.881Z,6.7
2018-12-15T14:51:45.821Z,5.2
2018-12-15T14:54:45.876Z,5.7
2018-12-15T14:57:45.744Z,6.6
2018-12-15T15:00:45.552Z,6.9
2018-12-15T15:03:45.906Z,5.2
2018-12-15T15:06:45.746Z,4.9
2018-12-15T15:09:46.319Z,6.8
2018-12-15T15:12:45.614Z,5.3
2018-12-15T15:15:46.210Z,4.9
2018-12-15T15:18:45.765Z,6.2
2018-12-15T15:21:45.970Z,5
2018-12-15T15:24:45.564Z,4.8
2018-12-15T15:27:46.060Z,5.6
2018-12-15T15:30:45.732Z,4.9
2018-12-15T15:33:46.037Z,4.8
2018-12-15T15:36:45.956Z,5
2018-12-15T15:39:46.083Z,5
2018-12-15T15:42:45.818Z,5.2
2018-12-15T15:45:45.668Z,5.7
2018-12-15T15:48:45.964Z,4.6
2018-12-15T15:51:45.820Z,4.8
2018-12-15T15:54:45.862Z,4.5
2018-12-15T15:57:45.779Z,7.2
2018-12-15T16:00:45.916Z,6.9
2018-12-15T16:03:45.916Z,4.9
2018-12-15T16:06:45.980Z,5.7
2018-12-15T16:09:45.775Z,4.5
2018-12-15T16:12:45.758Z,5.1
2018-12-15T16:15:45.671Z,5.4
2018-12-15T16:18:45.643Z,4.8
2018-12-15T16:21:45.693Z,4.7
2018-12-15T16:24:45.819Z,4.8
2018-12-15T16:27:45.857Z,5.2
2018-12-15T16:30:45.680Z,4.8
2018-12-15T16:33:45.752Z,6.8
2018-12-15T16:36:45.976Z,11.3
2018-12-15T16:39:45.965Z,13
2018-12-15T16:42:46.046Z,10.3
2018-12-15T16:45:45.838Z,9.1
2018-12-15T16:48:45.971Z,7.1
2018-12-15T16:51:45.838Z,6.9
2018-12-15T16:54:45.662Z,8.3
2018-12-15T16:57:45.552Z,7.9
2018-12-15T17:00:46.161Z,10.5
2018-12-15T17:03:45.968Z,8.1
2018-12-15T17:06:45.517Z,11
2018-12-15T17:09:45.693Z,10.3
2018-12-15T17:12:45.602Z,8.9
2018-12-15T17:15:46.302Z,8.5
2018-12-15T17:18:46.040Z,8
2018-12-15T17:21:45.905Z,6.2
2018-12-15T17:24:45.599Z,13.5
2018-12-15T17:27:45.902Z,11.8
2018-12-15T17:30:46.261Z,7.9
2018-12-15T17:33:45.524Z,6.8
2018-12-15T17:36:46.093Z,7.8
2018-12-15T17:39:45.874Z,8.1
2018-12-15T17:42:45.529Z,8.1
2018-12-15T17:45:45.746Z,6.6
2018-12-15T17:48:45.612Z,7.3
2018-12-15T17:51:45.704Z,6.5
2018-12-15T17:54:46.040Z,11.7
2018-12-15T17:57:45.640Z,6.8
2018-12-15T18:00:45.507Z,8.3
2018-12-15T18:03:46.799Z,5.9
2018-12-15T18:06:45.513Z,5.6
2018-12-15T18:09:45.458Z,7.1
2018-12-15T18:12:45.739Z,5
2018-12-15T18:15:46.013Z,6.5
2018-12-15T18:18:45.575Z,6.1
2018-12-15T18:21:45.832Z,5.6
2018-12-15T18:24:45.894Z,5.2
2018-12-15T18:27:45.554Z,5.2
2018-12-15T18:30:45.602Z,4.5
2018-12-15T18:33:45.731Z,7.1
2018-12-15T18:36:46.353Z,6.4
2018-12-15T18:39:46.016Z,5.4
2018-12-15T18:42:45.703Z,4.6
2018-12-15T18:45:45.505Z,5.6
2018-12-15T18:48:45.630Z,6.2
2018-12-15T18:51:46.023Z,6.9
2018-12-15T18:54:45.478Z,4.9
2018-12-15T18:57:45.714Z,5
2018-12-15T19:00:45.868Z,4.5
2018-12-15T19:03:45.480Z,5.1
2018-12-15T19:06:46.117Z,4.8
2018-12-15T19:09:46.082Z,4.6
2018-12-15T19:12:45.502Z,4.5
2018-12-15T19:15:45.732Z,4.7
2018-12-15T19:18:45.833Z,5.7
2018-12-15T19:21:45.586Z,5
2018-12-15T19:24:45.852Z,10.8
2018-12-15T19:27:45.520Z,5.5
2018-12-15T19:30:45.820Z,5.8
2018-12-15T19:33:45.530Z,4.7
2018-12-15T19:36:45.772Z,5.3
2018-12-15T19:39:45.835Z,5.2
2018-12-15T19:42:45.365Z,6.2
2018-12-15T19:45:45.859Z,5.2
2018-12-15T19:48:46.419Z,4.8
2018-12-15T19:51:45.935Z,4.9
2018-12-15T19:54:45.610Z,4.7
2018-12-15T19:57:45.894Z,4.6
2018-12-15T20:00:46.040Z,5
2018-12-15T20:03:45.878Z,5.3
2018-12-15T20:06:45.709Z,5
2018-12-15T20:09:46.568Z,6.2
2018-12-15T20:12:45.515Z,4.7
2018-12-15T20:15:45.624Z,4.8
2018-12-15T20:18:46.187Z,4.6
2018-12-15T20:21:45.608Z,5.8
2018-12-15T20:24:45.891Z,5.1
2018-12-15T20:27:46.346Z,4.7
2018-12-15T20:30:45.830Z,4.7
2018-12-15T20:33:45.847Z,5.1
2018-12-15T20:36:45.851Z,4.4
2018-12-15T20:39:45.950Z,4.6
2018-12-15T20:42:45.768Z,4.5
2018-12-15T20:45:46.035Z,5.8
2018-12-15T20:48:45.863Z,4.9
2018-12-15T20:51:45.537Z,7.8
2018-12-15T20:54:45.965Z,4.5
2018-12-15T20:57:45.968Z,4.4
2018-12-15T21:00:45.435Z,4.7
2018-12-15T21:03:45.423Z,4.7
2018-12-15T21:06:46.566Z,6.5
2018-12-15T21:09:45.630Z,5.2
2018-12-15T21:12:45.893Z,4.5
2018-12-15T21:15:45.650Z,4.3
2018-12-15T21:18:45.753Z,4.7
2018-12-15T21:21:50.177Z,4.2
2018-12-15T21:24:45.456Z,4.6
2018-12-15T21:27:45.622Z,5.3
2018-12-15T21:30:45.727Z,5.2
2018-12-15T21:33:45.440Z,6.3
2018-12-15T21:36:45.953Z,5.2
2018-12-15T21:39:45.806Z,5.2
2018-12-15T21:42:45.716Z,4.6
2018-12-15T21:45:46.141Z,4.4
2018-12-15T21:48:45.787Z,4.3
2018-12-15T21:51:45.448Z,4.3
2018-12-15T21:54:45.587Z,5.8
2018-12-15T21:57:45.543Z,5.9
2018-12-15T22:00:45.952Z,4.6
2018-12-15T22:03:46.020Z,4.3
2018-12-15T22:06:45.638Z,4.2
2018-12-15T22:09:46.015Z,4.8
2018-12-15T22:12:45.581Z,4.5
2018-12-15T22:15:45.500Z,4.8
2018-12-15T22:18:45.689Z,4.8
2018-12-15T22:21:45.560Z,4.3
2018-12-15T22:24:45.970Z,4.3
2018-12-15T22:27:45.753Z,4.3
2018-12-15T22:30:47.087Z,4.4
2018-12-15T22:33:45.495Z,4.6
2018-12-15T22:36:45.776Z,4.4
2018-12-15T22:39:46.058Z,4.8
2018-12-15T22:42:45.549Z,5.2
2018-12-15T22:45:45.511Z,4.3
2018-12-15T22:48:45.713Z,4.5
2018-12-15T22:51:46.512Z,4.2
2018-12-15T22:54:45.526Z,4.3
2018-12-15T22:57:45.873Z,4.4
2018-12-15T23:00:45.454Z,5.1
2018-12-15T23:03:45.521Z,4.3
2018-12-15T23:06:45.511Z,4.6
2018-12-15T23:09:45.733Z,4.6
2018-12-15T23:12:45.840Z,5.1
2018-12-15T23:15:45.748Z,4.1
2018-12-15T23:18:45.354Z,4.6
2018-12-15T23:21:45.829Z,4.5
2018-12-15T23:24:45.745Z,4.5
2018-12-15T23:27:45.492Z,4.8
2018-12-15T23:30:45.974Z,5
2018-12-15T23:33:46.008Z,4.6
2018-12-15T23:36:45.902Z,4.7
2018-12-15T23:39:45.393Z,4.4
2018-12-15T23:42:45.840Z,4.7
2018-12-15T23:45:45.595Z,4.6
2018-12-15T23:48:45.801Z,4.4
2018-12-15T23:51:45.519Z,4.6
2018-12-15T23:54:46.053Z,4.4
2018-12-15T23:57:45.545Z,4.4
